Lisburn, United Kingdom
Current Conditions -  °F | °C
As of 2:50 PM on Sunday 21 Dec 2014 (Local Time) from EGAC Reporting Station
Rain Showers Rain Showers  
Wind Chill: 12°   Ceiling: 2800
Heat Index: 12°   Visibility: 6mi
Dew Point: 10°   Wind: 22mph
Humidity: 88%   Direction: 230°SW
Pressure: 29.83"   Gusts: 33mph
Location:  54.51°N, 6.04°W
Report Text: EGAC 211450Z 23019G29KT 9999 VCSH FEW011 SCT017 BKN028 12/10 Q1010
Loading
Personal Weather Stations






























Interactive Weather Map New forecast layout! Learn more

10-Day Weather Forecast

Advertisements
Track Severe Weather on mobile